Time;durP1;ratioP1;P1;durP2;ratioP2;P2;SDS_P1;SDS_P2;PMS_P1;PMS_P2;Temp;Humidity;BMP_temperature;BMP_pressure;BME280_temperature;BME280_humidity;BME280_pressure;Samples;Min_cycle;Max_cycle;Signal;HPM_P1;HPM_P2
2022/06/01 00:00:09;;;;;;;24.33;12.52;;;;;;;-144.47;79.29;53420.22;5026387;28;20068;-86
2022/06/01 00:02:39;;;;;;;20.58;11.98;;;;;;;-144.47;79.24;53438.09;5013351;28;20022;-86
2022/06/01 00:05:05;;;;;;;17.80;11.25;;;;;;;-144.47;79.15;53416.22;4996373;28;20543;-88
2022/06/01 00:07:30;;;;;;;18.23;11.90;;;;;;;-144.47;79.24;53418.22;5013476;28;20026;-88
2022/06/01 00:09:56;;;;;;;18.52;11.60;;;;;;;-144.47;79.34;53463.91;5012705;28;20030;-87
2022/06/01 00:12:23;;;;;;;17.02;11.25;;;;;;;-144.47;79.11;53430.13;5012853;28;20048;-88
2022/06/01 00:14:49;;;;;;;15.75;11.20;;;;;;;-144.47;78.98;53418.22;5014827;28;20029;-88
2022/06/01 00:17:16;;;;;;;18.60;11.38;;;;;;;-144.47;79.16;53467.88;5012453;28;20066;-89
2022/06/01 00:19:43;;;;;;;21.23;12.20;;;;;;;-144.47;79.22;53428.16;5012845;28;20037;-88
2022/06/01 00:22:11;;;;;;;15.40;10.70;;;;;;;-144.47;79.29;53420.22;5011771;28;20044;-88
2022/06/01 00:24:43;;;;;;;17.75;11.60;;;;;;;-144.47;78.90;53446.03;4995059;28;20054;-89
2022/06/01 00:27:15;;;;;;;18.40;12.30;;;;;;;-144.47;79.21;53416.22;5010718;28;20125;-88
2022/06/01 00:29:41;;;;;;;18.63;10.68;;;;;;;-144.47;79.18;53406.31;5012284;28;20026;-87
2022/06/01 00:32:11;;;;;;;20.33;11.30;;;;;;;-144.47;79.38;53442.06;5012084;28;20030;-88
2022/06/01 00:34:36;;;;;;;16.83;11.15;;;;;;;-144.47;79.43;53414.25;5012272;28;20368;-89
2022/06/01 00:37:01;;;;;;;23.98;11.60;;;;;;;-144.47;79.39;53438.09;5012593;28;20136;-88
2022/06/01 00:39:28;;;;;;;19.73;11.88;;;;;;;-144.47;79.45;53370.53;5010575;28;20030;-88
2022/06/01 00:41:54;;;;;;;20.20;11.73;;;;;;;-144.47;79.34;53406.31;5012212;28;20022;-87
2022/06/01 00:44:23;;;;;;;19.98;12.15;;;;;;;-144.47;79.29;53430.13;5013945;28;20090;-88
2022/06/01 00:46:48;;;;;;;19.23;12.00;;;;;;;-144.47;79.04;53459.94;5016356;28;20026;-86
2022/06/01 00:49:23;;;;;;;19.10;11.10;;;;;;;-144.47;79.03;53459.94;5014888;28;20029;-87
2022/06/01 00:51:51;;;;;;;15.93;11.57;;;;;;;-144.47;79.01;53408.28;5017171;28;20030;-87
2022/06/01 00:54:17;;;;;;;16.33;11.15;;;;;;;-144.47;78.87;53450.00;5016522;28;20277;-87
2022/06/01 00:56:47;;;;;;;15.52;11.23;;;;;;;-144.47;78.96;53410.28;5031097;28;20484;-87
2022/06/01 00:59:19;;;;;;;17.20;11.25;;;;;;;-144.47;79.14;53438.09;5014169;28;20026;-87
2022/06/01 01:01:46;;;;;;;18.13;12.50;;;;;;;-144.47;79.04;53420.22;5013148;28;20049;-87
2022/06/01 01:04:13;;;;;;;23.98;12.15;;;;;;;-144.47;78.99;53424.19;5011999;28;20034;-87
2022/06/01 01:06:40;;;;;;;15.68;10.57;;;;;;;-144.47;79.09;53384.44;4995052;28;20045;-87
2022/06/01 01:09:11;;;;;;;19.30;11.90;;;;;;;-144.47;79.09;53422.19;5010726;28;20026;-87
2022/06/01 01:11:47;;;;;;;15.23;10.63;;;;;;;-144.47;79.29;53414.25;5011576;28;20029;-86
2022/06/01 01:14:19;;;;;;;15.95;11.10;;;;;;;-144.47;79.27;53442.06;5012207;28;20026;-88
2022/06/01 01:16:49;;;;;;;19.75;11.93;;;;;;;-144.47;79.09;53428.16;5018024;28;20101;-87
2022/06/01 01:19:37;;;;;;;17.98;10.52;;;;;;;-144.47;79.04;53436.09;5019390;28;20126;-87
2022/06/01 01:22:10;;;;;;;14.10;10.00;;;;;;;-144.47;79.09;53436.09;5018358;28;20045;-87
2022/06/01 01:24:57;;;;;;;18.10;10.95;;;;;;;-144.47;78.91;53422.19;5025866;28;20163;-89
2022/06/01 01:27:25;;;;;;;20.17;10.07;;;;;;;-144.47;78.91;53418.22;5017434;28;20049;-88
2022/06/01 01:29:54;;;;;;;19.67;11.48;;;;;;;-144.47;79.13;53426.16;5014012;28;20034;-88
2022/06/01 01:32:22;;;;;;;18.15;11.00;;;;;;;-144.47;79.04;53394.38;5014583;28;20125;-87
2022/06/01 01:34:48;;;;;;;15.30;9.95;;;;;;;-144.47;78.75;53428.16;5015078;28;20018;-88
2022/06/01 01:37:23;;;;;;;15.55;10.27;;;;;;;-144.47;78.74;53430.13;5015158;28;20021;-87
2022/06/01 01:39:51;;;;;;;15.30;10.02;;;;;;;-144.47;79.09;53444.03;5015165;28;20446;-88
2022/06/01 01:42:19;;;;;;;19.63;11.57;;;;;;;-144.47;79.31;53432.13;5015027;28;20439;-88
2022/06/01 01:44:58;;;;;;;19.30;11.35;;;;;;;-144.47;79.23;53408.28;5014937;28;20137;-88
2022/06/01 01:47:25;;;;;;;16.73;11.43;;;;;;;-144.47;79.34;53428.16;5013628;28;20026;-88
2022/06/01 01:49:53;;;;;;;23.15;11.65;;;;;;;-144.47;79.12;53428.16;5013358;28;20030;-88
2022/06/01 01:52:19;;;;;;;19.23;11.60;;;;;;;-144.47;79.36;53424.19;5014907;28;20036;-88
2022/06/01 01:55:22;;;;;;;18.60;12.63;;;;;;;-144.47;79.93;53446.03;5012582;28;20072;-88
2022/06/01 01:58:27;;;;;;;17.85;12.43;;;;;;;-144.47;80.10;53436.09;5014322;28;20108;-88
2022/06/01 02:01:15;;;;;;;;;;;;;;;;;;;;;
2022/06/01 02:03:52;;;;;;;19.20;12.75;;;;;;;-144.47;80.01;53422.19;5014790;28;20025;-88
2022/06/01 02:06:36;;;;;;;22.42;13.00;;;;;;;-144.47;79.86;53442.06;5013995;28;20434;-88
2022/06/01 02:09:06;;;;;;;27.63;13.50;;;;;;;-144.47;80.11;53448.00;5017233;28;20431;-87
2022/06/01 02:15:06;;;;;;;26.77;14.00;;;;;;;-144.47;80.10;53422.19;5013809;28;20053;-86
2022/06/01 02:17:48;;;;;;;25.00;14.95;;;;;;;-144.47;80.09;53436.09;4949305;29;20031;-87
2022/06/01 02:20:23;;;;;;;16.85;11.85;;;;;;;-144.47;79.96;53420.22;4938838;29;20468;-88
2022/06/01 02:22:49;;;;;;;22.38;13.90;;;;;;;-144.47;80.16;53440.06;4954313;29;20081;-88
2022/06/01 02:25:15;;;;;;;22.38;14.73;;;;;;;-144.47;80.55;53400.34;4939017;29;20030;-88
2022/06/01 02:27:44;;;;;;;26.60;15.80;;;;;;;-144.47;80.69;53398.34;4955705;29;20389;-87
2022/06/01 02:30:22;;;;;;;30.40;15.77;;;;;;;-144.47;80.74;53392.41;4953500;29;20042;-88
2022/06/01 02:32:51;;;;;;;27.23;15.93;;;;;;;-144.47;80.99;53450.00;4937484;29;20122;-87
2022/06/01 02:35:23;;;;;;;22.48;15.35;;;;;;;-144.47;80.90;53402.31;4937592;29;20543;-87
2022/06/01 02:37:54;;;;;;;27.52;15.93;;;;;;;-144.47;80.61;53398.34;4937496;29;20377;-88
2022/06/01 02:40:22;;;;;;;28.20;15.52;;;;;;;-144.47;80.74;53422.19;4940993;29;20023;-87
2022/06/01 02:42:54;;;;;;;28.10;16.45;;;;;;;-144.47;80.53;53428.16;4944546;29;20876;-86
2022/06/01 02:45:23;;;;;;;25.30;15.15;;;;;;;-144.47;80.35;53418.22;4965354;29;20481;-86
2022/06/01 02:47:52;;;;;;;26.05;14.13;;;;;;;-144.47;80.60;53406.31;4962454;29;20047;-84
2022/06/01 02:50:24;;;;;;;28.83;16.42;;;;;;;-144.47;81.20;53448.00;4963155;29;20042;-86
2022/06/01 02:52:50;;;;;;;27.55;14.93;;;;;;;-144.47;81.35;53420.22;4968643;29;20031;-87
2022/06/01 02:55:18;;;;;;;35.50;17.17;;;;;;;-144.47;81.44;53400.34;5013595;28;20041;-87
2022/06/01 02:57:44;;;;;;;23.98;15.20;;;;;;;-144.47;81.32;53444.03;5026447;28;20033;-87
2022/06/01 03:00:19;;;;;;;31.38;15.70;;;;;;;-144.47;81.34;53380.47;5024728;28;20033;-90
2022/06/01 03:02:46;;;;;;;26.20;15.60;;;;;;;-144.47;81.47;53436.09;5022728;28;20057;-89
2022/06/01 03:05:14;;;;;;;25.67;15.57;;;;;;;-144.47;81.72;53442.06;5020525;28;20119;-86
2022/06/01 03:07:40;;;;;;;33.53;15.48;;;;;;;-144.47;81.67;53422.19;5015167;28;20451;-87
2022/06/01 03:10:05;;;;;;;28.30;15.07;;;;;;;-144.47;81.64;53440.06;5014647;28;20030;-88
2022/06/01 03:12:31;;;;;;;29.00;15.95;;;;;;;-144.47;81.59;53436.09;5016097;28;20033;-86
2022/06/01 03:14:59;;;;;;;28.65;16.52;;;;;;;-144.47;81.37;53446.03;5015252;28;20061;-86
2022/06/01 03:17:25;;;;;;;29.48;15.20;;;;;;;-144.47;81.12;53406.31;5013803;28;20065;-88
2022/06/01 03:19:51;;;;;;;24.15;15.70;;;;;;;-144.47;80.98;53414.25;5012861;28;20045;-89
2022/06/01 03:22:16;;;;;;;29.70;16.20;;;;;;;-144.47;80.81;53398.34;4996043;28;20022;-88
2022/06/01 03:24:42;;;;;;;29.98;14.90;;;;;;;-144.47;80.89;53412.25;5012426;28;20036;-88
2022/06/01 03:27:07;;;;;;;28.13;15.85;;;;;;;-144.47;80.90;53442.06;5013359;28;20032;-88
2022/06/01 03:29:36;;;;;;;24.95;14.65;;;;;;;-144.47;81.20;53406.31;5012858;28;20034;-88
2022/06/01 03:32:01;;;;;;;23.50;14.60;;;;;;;-144.47;81.11;53446.03;5012980;28;20028;-88
2022/06/01 03:34:30;;;;;;;26.90;16.63;;;;;;;-144.47;81.34;53436.09;5010701;28;20376;-89
2022/06/01 03:36:56;;;;;;;25.08;15.55;;;;;;;-144.47;81.47;53420.22;5004474;28;20114;-89
2022/06/01 03:39:24;;;;;;;31.15;15.73;;;;;;;-144.47;81.48;53408.28;5014366;28;20040;-89
2022/06/01 03:41:49;;;;;;;33.03;16.95;;;;;;;-144.47;81.38;53446.03;5012599;28;20025;-87
2022/06/01 03:47:16;;;;;;;24.73;15.63;;;;;;;-144.47;81.31;53453.97;5012770;28;20562;-88
2022/06/01 03:49:42;;;;;;;28.77;16.15;;;;;;;-144.47;81.40;53432.13;4996847;28;20042;-85
2022/06/01 03:52:11;;;;;;;27.08;16.98;;;;;;;-144.47;81.33;53469.88;5012248;28;20494;-88
2022/06/01 03:54:40;;;;;;;32.33;15.60;;;;;;;-144.47;81.10;53440.06;5010675;28;20040;-88
2022/06/01 03:57:08;;;;;;;25.00;15.57;;;;;;;-144.47;81.16;53428.16;5012572;28;20104;-88
2022/06/01 03:59:35;;;;;;;29.20;15.52;;;;;;;-144.47;81.23;53408.28;5011854;28;20033;-87
2022/06/01 04:02:04;;;;;;;30.05;16.35;;;;;;;-144.47;81.25;53420.22;5011027;28;20033;-89
2022/06/01 04:04:34;;;;;;;29.05;14.65;;;;;;;-144.47;81.10;53461.91;5032830;28;20049;-88
2022/06/01 04:07:00;;;;;;;29.35;15.70;;;;;;;-144.47;81.01;53448.00;5025198;28;20036;-87
2022/06/01 04:09:29;;;;;;;25.63;14.80;;;;;;;-144.47;80.73;53428.16;5013061;28;20052;-87
2022/06/01 04:11:57;;;;;;;22.95;13.23;;;;;;;-144.47;80.51;53467.88;5011482;28;20018;-86
2022/06/01 04:14:28;;;;;;;24.23;14.63;;;;;;;-144.47;80.50;53436.09;5011377;28;20037;-87
2022/06/01 04:16:54;;;;;;;24.40;14.88;;;;;;;-144.47;80.45;53446.03;5013497;28;20030;-89
2022/06/01 04:19:32;;;;;;;25.00;14.20;;;;;;;-144.47;80.23;53469.88;5011808;28;20056;-90
2022/06/01 04:21:58;;;;;;;26.60;14.07;;;;;;;-144.47;79.93;53432.13;5012459;28;20048;-89
2022/06/01 04:24:49;;;;;;;;;;;;;;;;;;;;;
2022/06/01 04:27:20;;;;;;;21.90;13.85;;;;;;;-144.47;79.63;53414.25;5012760;28;20106;-88
2022/06/01 04:30:09;;;;;;;22.30;13.43;;;;;;;-144.47;79.35;53442.06;5013667;28;20057;-87
2022/06/01 04:39:14;;;;;;;;;;;;;;;;;;;;;
2022/06/01 04:41:53;;;;;;;17.27;11.65;;;;;;;-144.47;78.42;53424.19;4943394;29;20122;-90
2022/06/01 04:44:49;;;;;;;23.33;12.30;;;;;;;-144.47;78.14;53442.06;4943235;29;20067;-90
2022/06/01 04:47:18;;;;;;;24.42;11.18;;;;;;;-144.47;78.31;53412.25;4941140;29;20054;-87
2022/06/01 04:49:49;;;;;;;16.45;11.07;;;;;;;-144.47;77.75;53436.09;4948599;29;20043;-88
2022/06/01 04:52:20;;;;;;;18.88;10.45;;;;;;;-144.47;77.82;53424.19;4944330;29;20041;-88
2022/06/01 04:54:53;;;;;;;19.83;11.38;;;;;;;-144.47;77.74;53455.97;4924622;29;20468;-90
2022/06/01 04:57:29;;;;;;;22.30;11.93;;;;;;;-144.47;77.70;53436.09;4908756;29;20039;-90
2022/06/01 05:00:12;;;;;;;17.52;9.82;;;;;;;-144.47;77.46;53422.19;4926583;29;20035;-91
2022/06/01 05:06:00;;;;;;;15.23;9.55;;;;;;;-144.47;76.23;53412.25;4958588;28;20065;-87
2022/06/01 05:08:27;;;;;;;15.18;9.40;;;;;;;-144.47;75.73;53402.31;4983319;28;20096;-89
2022/06/01 05:10:58;;;;;;;12.73;8.52;;;;;;;-144.47;75.32;53422.19;4975551;28;20058;-88
2022/06/01 05:13:27;;;;;;;15.93;8.05;;;;;;;-144.47;74.93;53390.41;4993483;28;20109;-88
2022/06/01 05:16:01;;;;;;;14.10;7.70;;;;;;;-144.47;73.22;53412.25;4977898;28;20030;-86
2022/06/01 05:18:31;;;;;;;11.52;7.43;;;;;;;-144.47;72.67;53388.41;4992265;28;20158;-87
2022/06/01 05:21:09;;;;;;;13.10;7.35;;;;;;;-144.47;71.90;53446.03;4995162;28;20101;-88
2022/06/01 05:23:35;;;;;;;10.23;6.47;;;;;;;-144.47;70.12;53424.19;4994247;28;20023;-87
2022/06/01 05:26:03;;;;;;;10.55;6.47;;;;;;;-144.47;69.81;53398.34;5011892;28;20088;-88
2022/06/01 05:28:34;;;;;;;15.90;7.40;;;;;;;-144.47;69.92;53442.06;5032905;28;20018;-88
2022/06/01 05:31:13;;;;;;;9.77;6.05;;;;;;;-144.47;69.97;53410.28;5034347;28;20033;-87
2022/06/01 05:33:50;;;;;;;9.95;6.22;;;;;;;-144.47;70.21;53364.59;5022082;28;20021;-88
2022/06/01 05:36:23;;;;;;;13.75;6.32;;;;;;;-144.47;69.78;53410.28;5019928;28;20117;-87
2022/06/01 05:38:54;;;;;;;10.98;6.45;;;;;;;-144.47;69.10;53402.31;5017393;28;20440;-87
2022/06/01 05:41:20;;;;;;;11.73;5.35;;;;;;;-144.47;66.86;53392.41;5018099;28;20026;-88
2022/06/01 05:44:07;;;;;;;;;;;;;;;;;;;;;
2022/06/01 05:47:09;;;;;;;9.65;5.70;;;;;;;-144.47;66.84;53374.50;4990613;28;20101;-89
2022/06/01 05:49:37;;;;;;;10.30;5.65;;;;;;;-144.47;65.79;53368.56;5026733;28;20053;-88
2022/06/01 05:52:08;;;;;;;10.18;6.22;;;;;;;-144.47;65.51;53412.25;5019134;28;20038;-87
2022/06/01 05:54:39;;;;;;;11.43;5.68;;;;;;;-144.47;65.24;53336.78;5021365;28;20091;-88
2022/06/01 05:57:05;;;;;;;10.63;6.10;;;;;;;-144.47;65.91;53416.22;5019371;28;20026;-88
2022/06/01 05:59:36;;;;;;;16.85;7.15;;;;;;;-144.47;65.57;53370.53;5019853;28;20057;-90
2022/06/01 06:02:02;;;;;;;13.70;5.88;;;;;;;-144.47;65.37;53382.47;5015356;28;20100;-88
2022/06/01 06:04:27;;;;;;;17.23;6.88;;;;;;;-144.47;65.34;53378.50;5026793;28;20430;-86
2022/06/01 06:06:53;;;;;;;9.43;5.70;;;;;;;-144.47;65.31;53404.31;5021483;28;20029;-88
2022/06/01 06:09:30;;;;;;;11.90;6.32;;;;;;;-144.47;64.84;53376.50;5016279;28;20117;-88
2022/06/01 06:12:00;;;;;;;10.25;6.47;;;;;;;-144.47;63.95;53328.81;5017382;28;20096;-89
2022/06/01 06:14:28;;;;;;;12.50;5.50;;;;;;;-144.47;63.28;53396.38;5017953;28;20099;-89
2022/06/01 06:16:54;;;;;;;;;;;;;;;-144.47;62.51;53362.59;5015802;28;20026;-87
2022/06/01 06:19:21;;;;;;;14.23;5.07;;;;;;;-144.47;62.80;53338.75;5018815;28;20022;-86
2022/06/01 06:21:47;;;;;;;8.82;5.05;;;;;;;-144.47;62.65;53368.56;5018738;28;20094;-88
2022/06/01 06:24:15;;;;;;;9.32;4.97;;;;;;;-144.47;62.45;53374.50;5017441;28;20073;-87
2022/06/01 06:26:45;;;;;;;9.73;5.97;;;;;;;-144.47;61.59;53356.63;5018232;28;20399;-88
2022/06/01 06:29:16;;;;;;;11.13;5.63;;;;;;;-144.47;61.93;53356.63;5016080;28;20065;-88
2022/06/01 06:31:44;;;;;;;7.72;4.80;;;;;;;-144.47;60.40;53368.56;5015920;28;20440;-90
2022/06/01 06:34:33;;;;;;;14.90;4.80;;;;;;;-144.47;60.25;53358.63;5017222;28;20025;-88
2022/06/01 06:36:58;;;;;;;16.08;4.75;;;;;;;-144.47;59.35;53362.59;5029199;28;20068;-83
2022/06/01 06:39:28;;;;;;;12.73;4.78;;;;;;;-144.47;58.90;53354.66;5036027;28;20030;-87
2022/06/01 06:41:59;;;;;;;9.98;4.38;;;;;;;-144.47;58.89;53372.53;5035412;28;20018;-86
2022/06/01 06:44:27;;;;;;;10.65;4.38;;;;;;;-144.47;60.00;53380.47;5035244;28;20087;-89
2022/06/01 06:46:58;;;;;;;7.05;4.50;;;;;;;-144.47;60.63;53324.84;5034337;28;20038;-85
2022/06/01 06:49:34;;;;;;;;;;;;;;;;;;;;;
2022/06/01 06:52:00;;;;;;;9.18;5.03;;;;;;;-144.47;61.17;53362.59;5035094;28;20041;-90
2022/06/01 06:54:30;;;;;;;8.93;4.35;;;;;;;-144.47;61.54;53348.69;5034460;28;20026;-90
2022/06/01 06:57:07;;;;;;;9.13;4.40;;;;;;;-144.47;61.21;53374.50;5034012;28;20026;-86
2022/06/01 06:59:37;;;;;;;9.70;4.57;;;;;;;-144.47;60.36;53312.94;5026838;28;20025;-89
2022/06/01 07:02:16;;;;;;;7.60;4.25;;;;;;;-144.47;60.37;53344.72;5034818;28;20077;-90
2022/06/01 07:04:58;;;;;;;9.38;4.78;;;;;;;-144.47;60.42;53360.63;5035366;28;20045;-89
2022/06/01 07:07:38;;;;;;;8.13;5.45;;;;;;;-144.47;60.78;53350.69;5034196;28;20100;-87
2022/06/01 07:10:06;;;;;;;6.00;3.70;;;;;;;-144.47;61.15;53404.31;5032247;28;20026;-88
2022/06/01 07:12:39;;;;;;;7.22;3.65;;;;;;;-144.47;61.46;53364.59;5033034;28;20084;-88
2022/06/01 07:15:05;;;;;;;9.00;4.30;;;;;;;-144.47;61.10;53334.78;5018219;28;20064;-88
2022/06/01 07:17:31;;;;;;;6.10;3.67;;;;;;;-144.47;60.82;53370.53;5035061;28;20089;-88
2022/06/01 07:19:58;;;;;;;9.55;4.22;;;;;;;-144.47;61.18;53360.63;5050929;28;20169;-88
2022/06/01 07:22:23;;;;;;;8.98;3.85;;;;;;;-144.47;61.12;53360.63;5034625;28;20051;-85
2022/06/01 07:24:49;;;;;;;9.70;3.88;;;;;;;-144.47;60.34;53360.63;5035513;28;20049;-89
2022/06/01 07:27:20;;;;;;;8.77;4.20;;;;;;;-144.47;60.76;53380.47;5035096;28;20096;-87
2022/06/01 07:29:48;;;;;;;7.32;4.00;;;;;;;-144.47;59.61;53376.50;5033961;28;20014;-88
2022/06/01 07:32:25;;;;;;;10.85;3.90;;;;;;;-144.47;59.02;53336.78;5033142;28;20048;-86
2022/06/01 07:34:57;;;;;;;7.57;3.22;;;;;;;-144.47;59.16;53358.63;5033268;28;20101;-88
2022/06/01 07:43:08;;;;;;;5.90;3.17;;;;;;;-144.47;59.04;53350.69;5034300;28;20044;-89
2022/06/01 07:45:48;;;;;;;5.28;2.92;;;;;;;-144.47;59.52;53344.72;5033422;28;20044;-88
2022/06/01 07:48:17;;;;;;;5.03;2.90;;;;;;;-144.47;59.60;53342.72;5033626;28;20061;-88
2022/06/01 07:50:47;;;;;;;6.53;3.33;;;;;;;-144.47;59.96;53332.81;5032261;28;20014;-87
2022/06/01 07:53:13;;;;;;;7.80;3.25;;;;;;;-144.47;60.86;53366.56;5029246;28;20047;-87
2022/06/01 07:55:44;;;;;;;5.10;2.97;;;;;;;-144.47;61.24;53368.56;5031893;28;20041;-88
2022/06/01 07:58:12;;;;;;;8.40;4.10;;;;;;;-144.47;62.33;53378.50;5029913;28;20052;-88
2022/06/01 08:00:43;;;;;;;4.40;2.72;;;;;;;-144.47;63.25;53390.41;5031401;28;20033;-88
2022/06/01 08:03:15;;;;;;;6.43;3.80;;;;;;;-144.47;63.80;53348.69;5032496;28;20037;-88
2022/06/01 08:05:42;;;;;;;7.47;4.25;;;;;;;-144.47;64.15;53346.72;5032418;28;20064;-88
2022/06/01 08:08:10;;;;;;;5.72;2.92;;;;;;;-144.47;64.54;53338.75;5032247;28;20080;-87
2022/06/01 08:10:40;;;;;;;7.67;3.90;;;;;;;-144.47;64.58;53376.50;5034141;28;20018;-86
2022/06/01 08:13:12;;;;;;;5.47;3.10;;;;;;;-144.47;65.90;53366.56;5033175;28;20037;-88
2022/06/01 08:15:37;;;;;;;7.43;3.50;;;;;;;-144.47;65.82;53396.38;5033247;28;20025;-87
2022/06/01 08:18:03;;;;;;;6.00;3.25;;;;;;;-144.47;66.61;53362.59;5032142;28;20124;-88
2022/06/01 08:20:29;;;;;;;10.43;3.53;;;;;;;-144.47;66.39;53400.34;5047600;28;20563;-88
2022/06/01 08:22:55;;;;;;;5.20;2.72;;;;;;;-144.47;66.14;53354.66;5031132;28;20006;-88
2022/06/01 08:25:23;;;;;;;8.27;3.42;;;;;;;-144.47;66.38;53360.63;5035030;28;20052;-89
2022/06/01 08:27:52;;;;;;;11.65;3.35;;;;;;;-144.47;66.73;53360.63;5035666;28;20026;-89
2022/06/01 08:30:21;;;;;;;13.23;3.72;;;;;;;-144.47;66.63;53356.63;5036611;28;20018;-88
2022/06/01 08:32:47;;;;;;;6.40;3.05;;;;;;;-144.47;65.96;53392.41;5036466;28;20022;-87
2022/06/01 08:35:16;;;;;;;5.35;3.35;;;;;;;-144.47;66.29;53354.66;5036990;28;20026;-85
2022/06/01 08:37:48;;;;;;;12.02;3.13;;;;;;;-144.47;66.33;53344.72;5036174;28;20033;-89
2022/06/01 08:40:18;;;;;;;7.38;3.63;;;;;;;-144.47;65.91;53380.47;5035824;28;20054;-89
2022/06/01 08:42:52;;;;;;;10.30;3.38;;;;;;;-144.47;65.67;53346.72;5031984;28;20026;-89
2022/06/01 08:45:18;;;;;;;8.73;3.28;;;;;;;-144.47;65.65;53376.50;5020881;28;20053;-88
2022/06/01 08:48:05;;;;;;;7.30;3.00;;;;;;;-144.47;65.22;53376.50;5020433;28;20064;-88
2022/06/01 08:50:37;;;;;;;14.00;3.92;;;;;;;-144.47;65.01;53368.56;5008661;28;20034;-88
2022/06/01 08:53:05;;;;;;;6.70;3.63;;;;;;;-144.47;64.92;53396.38;5004415;28;20056;-89
2022/06/01 08:56:09;;;;;;;10.18;4.18;;;;;;;-144.47;64.16;53362.59;5025443;28;20022;-86
2022/06/01 08:58:44;;;;;;;7.75;4.18;;;;;;;-144.47;64.10;53356.63;5020458;28;20119;-89
2022/06/01 09:01:19;;;;;;;10.18;4.60;;;;;;;-144.47;62.08;53392.41;5021337;28;20025;-86
2022/06/01 09:04:10;;;;;;;7.47;3.80;;;;;;;-144.47;61.91;53396.38;5010616;28;20021;-90
2022/06/01 09:06:50;;;;;;;13.18;3.90;;;;;;;-144.47;61.46;53364.59;5021467;28;20025;-86
2022/06/01 09:10:09;;;;;;;10.48;3.20;;;;;;;-144.47;61.52;53332.81;5005530;28;20033;-90
2022/06/01 09:12:40;;;;;;;9.32;4.43;;;;;;;-144.47;62.27;53372.53;5003474;28;20044;-88
2022/06/01 09:15:28;;;;;;;9.52;3.85;;;;;;;-144.47;62.04;53370.53;5019326;28;20120;-89
2022/06/01 09:18:14;;;;;;;25.10;4.17;;;;;;;-144.47;61.91;53312.94;5020936;28;20021;-87
2022/06/01 09:23:46;;;;;;;14.07;2.90;;;;;;;-144.47;57.11;53350.69;5025317;28;20021;-87
2022/06/01 09:26:34;;;;;;;8.45;2.33;;;;;;;-144.47;54.97;53312.94;5026221;28;20033;-89
2022/06/01 09:29:02;;;;;;;16.13;3.42;;;;;;;-144.47;56.00;53336.78;5020705;28;20080;-83
2022/06/01 09:31:50;;;;;;;14.73;3.67;;;;;;;-144.47;55.89;53318.91;5018167;28;20029;-88
2022/06/01 09:34:22;;;;;;;6.30;2.20;;;;;;;-144.47;55.32;53354.66;5019213;28;20109;-90
2022/06/01 09:36:55;;;;;;;9.00;2.63;;;;;;;-144.47;55.83;53306.97;5018064;28;20135;-89
2022/06/01 09:39:22;;;;;;;9.13;2.28;;;;;;;-144.47;53.33;53308.97;5019004;28;20041;-90
2022/06/01 09:41:47;;;;;;;3.47;1.80;;;;;;;-144.47;52.71;53360.63;5017075;28;20105;-88
2022/06/01 09:44:23;;;;;;;7.10;2.08;;;;;;;-144.47;51.58;53310.94;5019744;28;20061;-88
2022/06/01 09:47:00;;;;;;;5.78;2.55;;;;;;;-144.47;53.36;53352.66;5021174;28;20052;-88
2022/06/01 09:49:32;;;;;;;7.32;1.85;;;;;;;-144.47;52.60;53303.00;5023099;28;20125;-89
2022/06/01 09:52:03;;;;;;;8.70;2.28;;;;;;;-144.47;53.48;53320.88;5021815;28;20045;-88
2022/06/01 09:54:37;;;;;;;2.95;1.45;;;;;;;-144.47;50.53;53326.84;5022588;28;20033;-87
2022/06/01 09:57:24;;;;;;;4.13;1.98;;;;;;;-144.47;49.22;53285.13;5024274;28;20032;-87
2022/06/01 10:08:32;;;;;;;4.07;1.50;;;;;;;-144.47;47.74;53310.94;5008574;28;20201;-88
2022/06/01 10:11:17;;;;;;;4.07;1.45;;;;;;;-144.47;47.01;53251.34;5026618;28;20088;-89
2022/06/01 10:14:01;;;;;;;2.78;1.33;;;;;;;-144.47;47.07;53299.03;5027434;28;20227;-89
2022/06/01 10:16:40;;;;;;;3.25;1.08;;;;;;;-144.47;44.74;53271.22;5012576;28;20093;-88
2022/06/01 10:19:25;;;;;;;2.88;1.17;;;;;;;-144.47;43.98;53271.22;5018476;28;20149;-88
2022/06/01 10:22:42;;;;;;;2.35;1.27;;;;;;;-144.47;45.10;53275.19;5014459;28;20026;-90
2022/06/01 10:25:41;;;;;;;2.50;0.95;;;;;;;-144.47;45.44;53306.97;4972969;28;20099;-88
2022/06/01 10:28:12;;;;;;;;;;;;;;;-144.47;43.40;53305.00;4998357;28;20053;-88
2022/06/01 10:31:01;;;;;;;1.45;1.00;;;;;;;-144.47;44.32;53297.03;4999871;28;20326;-90
2022/06/01 10:33:36;;;;;;;3.58;1.10;;;;;;;-144.47;44.06;53303.00;5016208;28;20029;-87
2022/06/01 10:36:39;;;;;;;2.53;1.27;;;;;;;-144.47;44.74;53301.03;5001346;28;20099;-88
2022/06/01 10:39:16;;;;;;;1.63;1.08;;;;;;;-144.47;44.50;53279.16;4998453;28;20034;-88
2022/06/01 10:41:51;;;;;;;2.22;1.10;;;;;;;-144.47;43.69;53279.16;5001116;28;20026;-87
2022/06/01 10:44:35;;;;;;;2.10;1.10;;;;;;;-144.47;43.86;53287.13;5012888;28;20031;-87
2022/06/01 10:47:13;;;;;;;1.92;1.13;;;;;;;-144.47;42.61;53245.41;5012075;28;20026;-88
2022/06/01 10:50:19;;;;;;;3.00;1.27;;;;;;;-144.47;43.01;53247.38;5013138;28;20030;-88
2022/06/01 10:53:17;;;;;;;5.70;1.05;;;;;;;-144.47;42.24;53235.47;5015415;28;20080;-87
2022/06/01 10:55:44;;;;;;;3.33;1.48;;;;;;;-144.47;42.65;53261.28;5013438;28;20108;-87
2022/06/01 10:58:38;;;;;;;1.45;0.82;;;;;;;-144.47;40.30;53259.31;5026457;28;20089;-87
2022/06/01 11:01:39;;;;;;;0.82;0.57;;;;;;;-144.47;39.99;53271.22;5032283;28;20036;-88
2022/06/01 11:04:33;;;;;;;3.70;0.75;;;;;;;-144.47;39.86;53279.16;5032280;28;20038;-88
2022/06/01 11:07:37;;;;;;;4.45;1.00;;;;;;;-144.47;39.64;53227.53;5029326;28;20079;-89
2022/06/01 11:10:48;;;;;;;3.20;0.88;;;;;;;-144.47;39.71;53247.38;5023734;28;20061;-89
2022/06/01 11:13:34;;;;;;;1.58;1.05;;;;;;;-144.47;38.48;53241.44;4985022;28;20082;-90
2022/06/01 11:16:10;;;;;;;4.15;1.10;;;;;;;-144.47;39.22;53279.16;4982454;28;20027;-87
2022/06/01 11:19:07;;;;;;;1.60;0.65;;;;;;;-144.47;37.40;53225.53;4959353;28;20114;-89
2022/06/01 11:21:58;;;;;;;8.43;0.82;;;;;;;-144.47;37.03;53207.66;4968588;28;20030;-89
2022/06/01 11:24:49;;;;;;;0.93;0.70;;;;;;;-144.47;36.50;53241.44;4987237;28;20058;-89
2022/06/01 11:27:42;;;;;;;;;;;;;;;;;;;;;
2022/06/01 11:30:29;;;;;;;2.08;0.88;;;;;;;-144.47;37.15;53221.56;4981818;28;20121;-89
2022/06/01 11:33:00;;;;;;;1.00;0.80;;;;;;;-144.47;37.38;53237.44;4987814;28;20026;-90
2022/06/01 11:35:47;;;;;;;1.98;1.00;;;;;;;-144.47;37.86;53291.09;4989774;28;20090;-90
2022/06/01 11:38:33;;;;;;;8.60;1.00;;;;;;;-144.47;38.71;53229.50;4986716;28;20125;-89
2022/06/01 11:41:39;;;;;;;3.88;1.08;;;;;;;-144.47;38.94;53261.28;4968475;28;20065;-90
2022/06/01 11:44:36;;;;;;;2.22;1.17;;;;;;;-144.47;39.98;53245.41;4984883;28;20034;-88
2022/06/01 11:47:09;;;;;;;1.92;1.10;;;;;;;-144.47;40.46;53233.47;4966522;28;20034;-90
2022/06/01 11:49:42;;;;;;;2.22;0.88;;;;;;;-144.47;39.26;53271.22;5002634;28;20053;-91
2022/06/01 11:52:47;;;;;;;3.47;0.90;;;;;;;-144.47;38.32;53245.41;5018013;28;20029;-90
2022/06/01 11:55:36;;;;;;;2.13;0.90;;;;;;;-144.47;37.95;53223.56;5017455;28;20042;-91
2022/06/01 11:58:47;;;;;;;4.38;0.90;;;;;;;-144.47;37.77;53273.22;5019244;28;20097;-89
2022/06/01 12:01:43;;;;;;;1.65;0.90;;;;;;;-144.47;38.22;53237.44;5016308;28;20087;-90
2022/06/01 12:04:19;;;;;;;4.32;0.90;;;;;;;-144.47;37.27;53231.50;5018802;28;20065;-91
2022/06/01 12:06:51;;;;;;;2.88;0.90;;;;;;;-144.47;37.65;53221.56;5017767;28;20386;-88
2022/06/01 12:09:38;;;;;;;2.47;1.00;;;;;;;-144.47;38.11;53223.56;5013737;28;20021;-90
2022/06/01 12:12:50;;;;;;;2.03;0.93;;;;;;;-144.47;38.39;53271.22;5016086;28;20068;-88
2022/06/01 12:15:32;;;;;;;3.88;0.95;;;;;;;-144.47;37.71;53239.44;5015506;28;20102;-91
2022/06/01 12:18:19;;;;;;;3.58;1.00;;;;;;;-144.47;36.78;53223.56;5016720;28;20032;-89
2022/06/01 12:21:07;;;;;;;1.40;0.80;;;;;;;-144.47;36.04;53247.38;5019636;28;20033;-89
2022/06/01 12:28:31;;;;;;;2.20;0.80;;;;;;;-144.47;35.96;53223.56;4960195;29;20118;-89